This is the latest recevied weather packets stored in our database for station/object DC1MAK-13. If no packets are shown the sender has not sent any weather packets the latest 10 day(s).
| Time | Temp. | Humidity | Pressure | Rain* | Wind** | Luminosity | Snow |
|---|---|---|---|---|---|---|---|
| 1787747527 | 27.78° C | 52% | 987.2 hPa | - | - | - | - |
| 1787747520 | 27.78° C | 52% | 987.2 hPa | - | - | - | - |
| 1787747227 | 26.67° C | 54% | 987.2 hPa | - | - | - | - |
| 1787746919 | 27.22° C | 51% | 987.2 hPa | - | - | - | - |
| 1787746913 | 27.22° C | 51% | 987.2 hPa | - | - | - | - |
| 1787746615 | 26.67° C | 52% | 987.2 hPa | - | - | - | - |
| 1787746312 | 27.22° C | 50% | 987.2 hPa | - | - | - | - |
| 1787746306 | 27.22° C | 50% | 987.2 hPa | - | - | - | - |
| 1787745707 | 28.33° C | 48% | 987.2 hPa | - | - | - | - |
| 1787745407 | 27.78° C | 50% | 987.2 hPa | - | - | - | - |
| 1787745098 | 27.78° C | 50% | 987.2 hPa | - | - | - | - |
| 1787744794 | 27.22° C | 52% | 987.2 hPa | - | - | - | - |
| 1787744491 | 27.22° C | 53% | 987.1 hPa | - | - | - | - |
| 1787744182 | 26.67° C | 56% | 987.3 hPa | - | - | - | - |
| 1787743887 | 26.11° C | 59% | 987.3 hPa | - | - | - | - |
| 1787743878 | 26.11° C | 59% | 987.3 hPa | - | - | - | - |
| 1787743581 | 26.67° C | 59% | 987.4 hPa | - | - | - | - |
| 1787743575 | 26.67° C | 59% | 987.4 hPa | - | - | - | - |
| 1787743271 | 25° C | 62% | 987.4 hPa | - | - | - | - |
| 1787742974 | 25.56° C | 60% | 987.4 hPa | - | - | - | - |
| 1787742968 | 25.56° C | 60% | 987.4 hPa | - | - | - | - |
| 1787742670 | 26.11° C | 61% | 987.5 hPa | - | - | - | - |
| 1787742361 | 26.11° C | 60% | 987.6 hPa | - | - | - | - |
| 1787742067 | 26.11° C | 60% | 987.7 hPa | - | - | - | - |
| 1787742057 | 26.11° C | 60% | 987.7 hPa | - | - | - | - |
* Rain since midnight (hover to see other rain measurements)
** Current wind speed in m/s (hover to see current wind gust speed)